ADDS METAR Data INFO
IDs: Format: Raw Decoded Include TAF

Data at: 1848 UTC 17 Oct 2017

KIPL 171753Z AUTO 31005KT 10SM CLR 30/02 A2998 RMK AO2 SLP152 T03000017 10300 20150 50003
KIPL 171653Z AUTO 26003KT 10SM CLR 24/06 A2999 RMK AO2 SLP154 T02440056
KIPL 171553Z AUTO 27005KT 10SM CLR 21/M01 A2998 RMK AO2 SLP152 T02111011
KIPL 171453Z AUTO 28006KT 10SM CLR 19/M03 A2997 RMK AO2 SLP148 T01891028 53013
KIPL 171353Z AUTO 25005KT 10SM CLR 18/M03 A2995 RMK AO2 SLP142 T01781033
KIPL 171253Z AUTO 26006KT 10SM CLR 17/M02 A2994 RMK AO2 SLP140 T01721017
KIPL 171153Z AUTO 24005KT 10SM CLR 17/M02 A2993 RMK AO2 SLP137 T01721017 10217 20161 55006
KIPL 171053Z AUTO 26005KT 10SM CLR 17/M01 A2993 RMK AO2 SLP135 T01721006
KIPL 170953Z AUTO 27005KT 10SM CLR 19/M03 A2994 RMK AO2 SLP138 T01941028
KIPL 170853Z AUTO 26006KT 10SM CLR 18/00 A2995 RMK AO2 SLP142 T01830000 58006
KIPL 170753Z AUTO 00000KT 10SM CLR 19/M01 A2996 RMK AO2 SLP145 T01891011 403610144
KIPL 170653Z AUTO 27006KT 10SM CLR 19/00 A2996 RMK AO2 SLP146 T01940000
KIPL 170553Z AUTO 25005KT 10SM CLR 22/M01 A2997 RMK AO2 SLP148 T02171006 10356 20211 51007
KIPL 170453Z AUTO 27003KT 10SM CLR 23/00 A2996 RMK AO2 SLP148 T02330000
KIPL 170353Z AUTO 29005KT 10SM CLR 23/04 A2996 RMK AO2 SLP144 T02280039
KIPL 170253Z AUTO 25004KT 10SM CLR 26/02 A2994 RMK AO2 SLP140 T02560022 53004
KIPL 170153Z AUTO 24003KT 10SM CLR 28/01 A2993 RMK AO2 SLP136 T02780006
KIPL 170053Z AUTO 26005KT 10SM SCT110 32/02 A2992 RMK AO2 SLP133 T03220022
KIPL 162353Z AUTO 32004KT 10SM SCT120 36/M02 A2993 RMK AO2 SLP136 T03561017 10361 20306 56019
KIPL 162253Z AUTO 01005KT 10SM SCT110 36/M03 A2995 RMK AO2 SLP142 T03611028
KIPL 162153Z AUTO 34006KT 10SM FEW110 36/M03 A2997 RMK AO2 SLP148 T03561028
KIPL 162053Z AUTO 02006KT 10SM FEW110 35/M04 A2999 RMK AO2 SLP156 T03501039 58029
KIPL 161953Z AUTO 35004KT 10SM CLR 34/M01 A3003 RMK AO2 SLP168 T03391011
KIPL 161853Z AUTO 35003KT 10SM CLR 32/M02 A3005 RMK AO2 SLP177 T03171017
KIPL 161753Z AUTO VRB04KT 10SM CLR 31/M01 A3007 RMK AO2 SLP184 T03061011 10306 20144 50004
KIPL 161653Z AUTO 32005KT 10SM CLR 28/M02 A3008 RMK AO2 SLP186 T02781022
KIPL 161553Z AUTO 26004KT 10SM CLR 22/05 A3008 RMK AO2 SLP186 T02220050
KIPL 161453Z AUTO 30003KT 10SM CLR 17/M01 A3006 RMK AO2 SLP179 T01721006 53013
KIPL 161353Z AUTO 30004KT 10SM CLR 16/M02 A3004 RMK AO2 SLP172 T01561022
KIPL 161253Z AUTO 26005KT 10SM CLR 17/M03 A3004 RMK AO2 SLP172 T01671033
KIPL 161153Z AUTO 26006KT 10SM CLR 16/M02 A3002 RMK AO2 SLP166 T01611022 10206 20150 56007
KIPL 161053Z AUTO 26006KT 10SM CLR 16/M02 A3002 RMK AO2 SLP168 T01611017
KIPL 160953Z AUTO 26003KT 10SM CLR 17/M03 A3003 RMK AO2 SLP170 T01721033
KIPL 160853Z AUTO 00000KT 10SM CLR 18/M02 A3004 RMK AO2 SLP174 T01781017 55001
KIPL 160753Z AUTO 23003KT 10SM CLR 18/M01 A3004 RMK AO2 SLP173 T01781011 403390144
KIPL 160653Z AUTO 29004KT 10SM CLR 19/M01 A3004 RMK AO2 SLP173 T01891006